createdAt,value
2018-12-30T16:13:25.872Z,10.35
2018-12-30T16:15:54.077Z,9.63
2018-12-30T16:18:22.544Z,8.63
2018-12-30T16:20:50.312Z,8.87
2018-12-30T16:23:18.136Z,8.13
2018-12-30T16:25:46.025Z,8.43
2018-12-30T16:28:14.337Z,8.90
2018-12-30T16:30:42.912Z,8.43
2018-12-30T16:33:10.700Z,8.33
2018-12-30T16:35:39.188Z,9.03
2018-12-30T16:38:07.262Z,9.03
2018-12-30T16:40:35.002Z,8.57
2018-12-30T16:43:02.970Z,8.73
2018-12-30T16:45:31.087Z,9.73
2018-12-30T16:47:59.225Z,9.23
2018-12-30T16:50:27.159Z,8.53
2018-12-30T16:52:55.007Z,8.53
2018-12-30T16:55:22.854Z,8.37
2018-12-30T16:57:50.918Z,9.03
2018-12-30T17:00:19.237Z,9.40
2018-12-30T17:02:48.064Z,9.33
2018-12-30T17:05:15.897Z,8.63
2018-12-30T17:07:44.033Z,9.00
2018-12-30T17:10:12.468Z,9.20
2018-12-30T17:12:40.354Z,8.87
2018-12-30T17:15:08.238Z,8.97
2018-12-30T17:17:36.065Z,8.73
2018-12-30T17:20:04.003Z,9.17
2018-12-30T17:22:31.846Z,8.87
2018-12-30T17:24:59.694Z,8.83
2018-12-30T17:27:27.600Z,8.07
2018-12-30T17:29:55.560Z,8.10
2018-12-30T17:32:23.496Z,8.57
2018-12-30T17:34:51.272Z,9.00
2018-12-30T17:37:19.318Z,8.33
2018-12-30T17:39:47.418Z,8.53
2018-12-30T17:42:15.632Z,8.70
2018-12-30T17:44:44.601Z,8.00
2018-12-30T17:47:12.491Z,8.90
2018-12-30T17:49:40.256Z,8.20
2018-12-30T17:52:08.138Z,8.03
2018-12-30T17:54:36.639Z,8.03
2018-12-30T17:57:05.015Z,8.43
2018-12-30T17:59:33.586Z,8.67
2018-12-30T18:02:01.754Z,9.07
2018-12-30T18:04:29.973Z,9.37
2018-12-30T18:06:58.049Z,9.97
2018-12-30T18:09:26.136Z,9.80
2018-12-30T18:11:54.194Z,8.77
2018-12-30T18:14:22.228Z,9.60
2018-12-30T18:16:50.240Z,8.37
2018-12-30T18:19:18.983Z,9.03
2018-12-30T18:21:47.133Z,9.10
2018-12-30T18:24:15.463Z,9.13
2018-12-30T18:26:43.616Z,9.67
2018-12-30T18:29:11.814Z,10.73
2018-12-30T18:31:40.017Z,9.47
2018-12-30T18:34:07.843Z,9.50
2018-12-30T18:36:36.443Z,9.43
2018-12-30T18:39:06.432Z,9.30
2018-12-30T18:41:35.123Z,9.90
2018-12-30T18:44:03.500Z,9.73
2018-12-30T18:46:32.069Z,8.77
2018-12-30T18:49:00.250Z,9.50
2018-12-30T18:51:28.501Z,9.60
2018-12-30T18:53:56.603Z,9.37
2018-12-30T18:56:24.607Z,9.23
2018-12-30T18:58:53.071Z,9.93
2018-12-30T19:01:21.532Z,8.97
2018-12-30T19:03:49.465Z,9.40
2018-12-30T19:06:17.534Z,9.40
2018-12-30T19:08:45.906Z,9.17
2018-12-30T19:11:13.708Z,9.53
2018-12-30T19:13:41.744Z,8.80
2018-12-30T19:16:10.410Z,8.93
2018-12-30T19:18:39.124Z,8.73
2018-12-30T19:21:07.236Z,9.10
2018-12-30T19:23:35.440Z,9.40
2018-12-30T19:26:03.695Z,9.10
2018-12-30T19:28:31.928Z,9.27
2018-12-30T19:31:00.483Z,9.37
2018-12-30T19:33:28.339Z,9.67
2018-12-30T19:35:56.586Z,9.20
2018-12-30T19:38:24.989Z,9.07
2018-12-30T19:40:53.446Z,10.23
2018-12-30T19:43:21.288Z,9.20
2018-12-30T19:45:49.213Z,9.87
2018-12-30T19:48:17.508Z,10.37
2018-12-30T19:50:45.622Z,9.47
2018-12-30T19:53:13.921Z,9.03
2018-12-30T19:55:42.718Z,8.93
2018-12-30T19:58:11.407Z,9.30
2018-12-30T20:00:39.690Z,9.93
2018-12-30T20:03:08.305Z,9.00
2018-12-30T20:05:36.194Z,8.23
2018-12-30T20:08:04.385Z,9.57
2018-12-30T20:10:32.218Z,8.90
2018-12-30T20:13:00.050Z,8.57
2018-12-30T20:15:27.857Z,9.17
2018-12-30T20:17:56.081Z,9.10
2018-12-30T20:20:23.856Z,8.73
2018-12-30T20:22:51.694Z,9.40
2018-12-30T20:25:20.094Z,9.33
2018-12-30T20:27:48.872Z,9.33
2018-12-30T20:30:16.846Z,9.33
2018-12-30T20:32:45.008Z,9.40
2018-12-30T20:35:13.372Z,9.77
2018-12-30T20:37:41.314Z,10.30
2018-12-30T20:40:09.156Z,9.63
2018-12-30T20:42:37.482Z,9.80
2018-12-30T20:45:06.092Z,10.10
2018-12-30T20:47:34.862Z,10.10
2018-12-30T20:50:03.301Z,10.37
2018-12-30T20:52:31.416Z,10.63
2018-12-30T20:54:59.601Z,9.80
2018-12-30T20:57:27.971Z,10.27
2018-12-30T20:59:56.343Z,9.53
2018-12-30T21:02:24.695Z,9.63
2018-12-30T21:04:53.213Z,10.87
2018-12-30T21:07:21.384Z,10.47
2018-12-30T21:09:49.680Z,10.20
2018-12-30T21:12:17.481Z,9.83
2018-12-30T21:14:45.270Z,10.30
2018-12-30T21:17:13.831Z,11.47
2018-12-30T21:19:41.618Z,10.23
2018-12-30T21:22:10.009Z,10.83
2018-12-30T21:24:38.335Z,11.27
2018-12-30T21:27:06.558Z,11.13
2018-12-30T21:29:34.390Z,11.73
2018-12-30T21:32:02.557Z,11.20
2018-12-30T21:34:31.690Z,12.10
2018-12-30T21:36:59.955Z,11.80
2018-12-30T21:39:27.836Z,12.03
2018-12-30T21:41:55.575Z,11.87
2018-12-30T21:44:23.983Z,12.60
2018-12-30T21:46:51.994Z,12.33
2018-12-30T21:49:20.072Z,12.30
2018-12-30T21:51:48.299Z,11.73
2018-12-30T21:54:16.111Z,14.07
2018-12-30T21:56:44.008Z,13.30
2018-12-30T21:59:11.932Z,12.73
2018-12-30T22:01:39.837Z,13.47
2018-12-30T22:04:07.956Z,14.00
2018-12-30T22:06:36.070Z,13.73
2018-12-30T22:09:06.049Z,13.07
2018-12-30T22:11:34.136Z,13.53
2018-12-30T22:14:03.073Z,13.50
2018-12-30T22:16:31.235Z,13.60
2018-12-30T22:18:59.542Z,14.30
2018-12-30T22:21:27.615Z,13.87
2018-12-30T22:23:55.368Z,13.60
2018-12-30T22:26:23.663Z,14.17
2018-12-30T22:28:51.592Z,13.90
2018-12-30T22:31:19.629Z,13.53
2018-12-30T22:33:47.496Z,14.17
2018-12-30T22:36:16.015Z,13.30
2018-12-30T22:38:44.252Z,12.93
2018-12-30T22:41:11.955Z,13.33
2018-12-30T22:43:40.362Z,13.30
2018-12-30T22:46:08.152Z,13.43
2018-12-30T22:48:36.198Z,13.33
2018-12-30T22:51:04.151Z,12.73
2018-12-30T22:53:32.039Z,13.17
2018-12-30T22:55:59.803Z,13.10
2018-12-30T22:58:28.177Z,12.97
2018-12-30T23:01:21.070Z,13.30
2018-12-30T23:03:49.246Z,12.23
2018-12-30T23:06:17.477Z,12.70
2018-12-30T23:08:45.242Z,12.87
2018-12-30T23:11:13.460Z,12.50
2018-12-30T23:13:41.710Z,13.37
2018-12-30T23:16:09.511Z,14.33
2018-12-30T23:18:37.648Z,14.07
2018-12-30T23:21:05.776Z,13.03
2018-12-30T23:23:34.147Z,13.23
2018-12-30T23:26:02.533Z,13.00
2018-12-30T23:28:30.786Z,12.63
2018-12-30T23:30:59.098Z,12.93
2018-12-30T23:33:27.180Z,12.63
2018-12-30T23:35:55.804Z,13.30
2018-12-30T23:38:24.249Z,12.87
2018-12-30T23:40:52.078Z,11.37
2018-12-30T23:43:21.036Z,12.67
2018-12-30T23:45:49.599Z,12.13
2018-12-30T23:48:17.964Z,11.93
2018-12-30T23:50:45.825Z,12.83
2018-12-30T23:53:15.474Z,12.17
2018-12-30T23:55:43.966Z,12.97
2018-12-30T23:58:11.774Z,12.23
